sensor_id;sensor_type;location;lat;lon;timestamp;pressure;altitude;pressure_sealevel;temperature;humidity
6204;BME280;3135;42.602;23.468;2024-01-15T00:00:38;148376.78;;;-3.91;100.00
6204;BME280;3135;42.602;23.468;2024-01-15T00:03:04;148301.28;;;-4.21;100.00
6204;BME280;3135;42.602;23.468;2024-01-15T00:05:29;148344.81;;;-4.04;100.00
6204;BME280;3135;42.602;23.468;2024-01-15T00:07:55;148307.69;;;-4.19;100.00
6204;BME280;3135;42.602;23.468;2024-01-15T00:10:20;148351.19;;;-4.01;100.00
6204;BME280;3135;42.602;23.468;2024-01-15T00:12:46;148310.25;;;-4.18;100.00
6204;BME280;3135;42.602;23.468;2024-01-15T00:15:11;148289.75;;;-4.26;100.00
6204;BME280;3135;42.602;23.468;2024-01-15T00:17:37;148320.50;;;-4.14;100.00
6204;BME280;3135;42.602;23.468;2024-01-15T00:20:03;148328.16;;;-4.11;100.00
6204;BME280;3135;42.602;23.468;2024-01-15T00:22:29;148297.44;;;-4.23;100.00
6204;BME280;3135;42.602;23.468;2024-01-15T00:24:54;148300.00;;;-4.22;100.00
6204;BME280;3135;42.602;23.468;2024-01-15T00:27:20;148293.56;;;-4.24;100.00
6204;BME280;3135;42.602;23.468;2024-01-15T00:29:45;148302.53;;;-4.21;100.00
6204;BME280;3135;42.602;23.468;2024-01-15T00:32:11;148298.72;;;-4.22;100.00
6204;BME280;3135;42.602;23.468;2024-01-15T00:34:36;148288.47;;;-4.26;100.00
6204;BME280;3135;42.602;23.468;2024-01-15T00:37:01;148297.44;;;-4.23;100.00
6204;BME280;3135;42.602;23.468;2024-01-15T00:39:28;148338.38;;;-4.06;100.00
6204;BME280;3135;42.602;23.468;2024-01-15T00:41:53;148312.78;;;-4.17;100.00
6204;BME280;3135;42.602;23.468;2024-01-15T00:44:18;148366.53;;;-3.95;100.00
6204;BME280;3135;42.602;23.468;2024-01-15T00:46:45;148306.38;;;-4.19;100.00
6204;BME280;3135;42.602;23.468;2024-01-15T00:49:14;148356.34;;;-3.99;100.00
6204;BME280;3135;42.602;23.468;2024-01-15T00:51:40;148279.50;;;-4.30;100.00
6204;BME280;3135;42.602;23.468;2024-01-15T00:54:06;148275.69;;;-4.31;100.00
6204;BME280;3135;42.602;23.468;2024-01-15T00:56:31;148320.50;;;-4.14;100.00
6204;BME280;3135;42.602;23.468;2024-01-15T00:58:57;148325.59;;;-4.12;100.00
6204;BME280;3135;42.602;23.468;2024-01-15T01:01:22;148292.31;;;-4.25;100.00
6204;BME280;3135;42.602;23.468;2024-01-15T01:03:48;148279.50;;;-4.30;100.00
6204;BME280;3135;42.602;23.468;2024-01-15T01:06:13;148271.81;;;-4.33;100.00
6204;BME280;3135;42.602;23.468;2024-01-15T01:08:39;148296.16;;;-4.23;100.00
6204;BME280;3135;42.602;23.468;2024-01-15T01:11:04;148343.53;;;-4.04;100.00
6204;BME280;3135;42.602;23.468;2024-01-15T01:13:32;148320.50;;;-4.14;100.00
6204;BME280;3135;42.602;23.468;2024-01-15T01:15:57;148269.25;;;-4.34;100.00
6204;BME280;3135;42.602;23.468;2024-01-15T01:18:23;148269.25;;;-4.34;100.00
6204;BME280;3135;42.602;23.468;2024-01-15T01:20:48;148227.06;;;-4.51;100.00
6204;BME280;3135;42.602;23.468;2024-01-15T01:23:14;148232.16;;;-4.49;100.00
6204;BME280;3135;42.602;23.468;2024-01-15T01:25:39;148274.41;;;-4.32;100.00
6204;BME280;3135;42.602;23.468;2024-01-15T01:28:05;148251.38;;;-4.41;100.00
6204;BME280;3135;42.602;23.468;2024-01-15T01:30:30;148248.81;;;-4.42;100.00
6204;BME280;3135;42.602;23.468;2024-01-15T01:32:56;148269.25;;;-4.34;100.00
6204;BME280;3135;42.602;23.468;2024-01-15T01:35:22;148244.94;;;-4.44;100.00
6204;BME280;3135;42.602;23.468;2024-01-15T01:37:47;148269.25;;;-4.34;100.00
6204;BME280;3135;42.602;23.468;2024-01-15T01:40:13;148259.00;;;-4.38;100.00
6204;BME280;3135;42.602;23.468;2024-01-15T01:42:38;148270.53;;;-4.33;100.00
6204;BME280;3135;42.602;23.468;2024-01-15T01:45:04;148284.66;;;-4.28;100.00
6204;BME280;3135;42.602;23.468;2024-01-15T01:47:30;148262.88;;;-4.37;100.00
6204;BME280;3135;42.602;23.468;2024-01-15T01:49:55;148197.59;;;-4.63;100.00
6204;BME280;3135;42.602;23.468;2024-01-15T01:52:21;148253.91;;;-4.40;100.00
6204;BME280;3135;42.602;23.468;2024-01-15T01:54:47;148244.94;;;-4.44;100.00
6204;BME280;3135;42.602;23.468;2024-01-15T01:57:13;148234.69;;;-4.48;100.00
6204;BME280;3135;42.602;23.468;2024-01-15T01:59:40;148229.59;;;-4.50;100.00
6204;BME280;3135;42.602;23.468;2024-01-15T02:02:06;148241.13;;;-4.45;100.00
6204;BME280;3135;42.602;23.468;2024-01-15T02:04:32;148259.00;;;-4.38;100.00
6204;BME280;3135;42.602;23.468;2024-01-15T02:06:59;148210.38;;;-4.57;100.00
6204;BME280;3135;42.602;23.468;2024-01-15T02:09:24;148187.34;;;-4.67;100.00
6204;BME280;3135;42.602;23.468;2024-01-15T02:11:50;148202.75;;;-4.60;100.00
6204;BME280;3135;42.602;23.468;2024-01-15T02:14:16;148210.38;;;-4.57;100.00
6204;BME280;3135;42.602;23.468;2024-01-15T02:16:41;148225.78;;;-4.51;100.00
6204;BME280;3135;42.602;23.468;2024-01-15T02:19:07;148214.25;;;-4.56;100.00
6204;BME280;3135;42.602;23.468;2024-01-15T02:21:33;148246.22;;;-4.43;100.00
6204;BME280;3135;42.602;23.468;2024-01-15T02:23:58;148303.81;;;-4.20;100.00
6204;BME280;3135;42.602;23.468;2024-01-15T02:26:24;148237.28;;;-4.47;100.00
6204;BME280;3135;42.602;23.468;2024-01-15T02:28:51;148297.44;;;-4.23;100.00
6204;BME280;3135;42.602;23.468;2024-01-15T02:31:17;148262.88;;;-4.37;100.00
6204;BME280;3135;42.602;23.468;2024-01-15T02:33:44;148266.72;;;-4.35;100.00
6204;BME280;3135;42.602;23.468;2024-01-15T02:36:11;148192.50;;;-4.65;100.00
6204;BME280;3135;42.602;23.468;2024-01-15T02:38:37;148243.66;;;-4.44;100.00
6204;BME280;3135;42.602;23.468;2024-01-15T02:41:02;148215.53;;;-4.55;100.00
6204;BME280;3135;42.602;23.468;2024-01-15T02:43:28;148212.94;;;-4.56;100.00
6204;BME280;3135;42.602;23.468;2024-01-15T02:45:54;148260.28;;;-4.38;100.00
6204;BME280;3135;42.602;23.468;2024-01-15T02:48:19;148275.69;;;-4.31;100.00
6204;BME280;3135;42.602;23.468;2024-01-15T02:50:44;148293.56;;;-4.24;100.00
6204;BME280;3135;42.602;23.468;2024-01-15T02:53:10;148310.25;;;-4.18;100.00
6204;BME280;3135;42.602;23.468;2024-01-15T02:55:35;148301.28;;;-4.21;100.00
6204;BME280;3135;42.602;23.468;2024-01-15T02:58:01;148271.81;;;-4.33;100.00
6204;BME280;3135;42.602;23.468;2024-01-15T03:00:26;148282.06;;;-4.29;100.00
6204;BME280;3135;42.602;23.468;2024-01-15T03:02:52;148292.31;;;-4.25;100.00
6204;BME280;3135;42.602;23.468;2024-01-15T03:05:18;148260.28;;;-4.38;100.00
6204;BME280;3135;42.602;23.468;2024-01-15T03:07:45;148279.50;;;-4.30;100.00
6204;BME280;3135;42.602;23.468;2024-01-15T03:10:13;148300.00;;;-4.22;100.00
6204;BME280;3135;42.602;23.468;2024-01-15T03:12:38;148328.16;;;-4.11;100.00
6204;BME280;3135;42.602;23.468;2024-01-15T03:15:04;148325.59;;;-4.12;100.00
6204;BME280;3135;42.602;23.468;2024-01-15T03:17:29;148321.78;;;-4.13;100.00
6204;BME280;3135;42.602;23.468;2024-01-15T03:19:55;148335.84;;;-4.07;100.00
6204;BME280;3135;42.602;23.468;2024-01-15T03:22:20;148332.00;;;-4.09;100.00
6204;BME280;3135;42.602;23.468;2024-01-15T03:24:46;148316.63;;;-4.15;100.00
6204;BME280;3135;42.602;23.468;2024-01-15T03:27:11;148326.88;;;-4.11;100.00
6204;BME280;3135;42.602;23.468;2024-01-15T03:29:37;148315.34;;;-4.16;100.00
6204;BME280;3135;42.602;23.468;2024-01-15T03:32:02;148312.78;;;-4.17;100.00
6204;BME280;3135;42.602;23.468;2024-01-15T03:34:28;148314.06;;;-4.16;100.00
6204;BME280;3135;42.602;23.468;2024-01-15T03:36:54;148376.78;;;-3.91;100.00
6204;BME280;3135;42.602;23.468;2024-01-15T03:39:19;148346.09;;;-4.03;100.00
6204;BME280;3135;42.602;23.468;2024-01-15T03:41:44;148358.88;;;-3.98;100.00
6204;BME280;3135;42.602;23.468;2024-01-15T03:44:10;148388.31;;;-3.87;100.00
6204;BME280;3135;42.602;23.468;2024-01-15T03:46:35;148365.25;;;-3.96;100.00
6204;BME280;3135;42.602;23.468;2024-01-15T03:49:01;148349.91;;;-4.02;100.00
6204;BME280;3135;42.602;23.468;2024-01-15T03:51:26;148379.38;;;-3.90;100.00
6204;BME280;3135;42.602;23.468;2024-01-15T03:53:52;148366.53;;;-3.95;100.00
6204;BME280;3135;42.602;23.468;2024-01-15T03:56:17;148417.78;;;-3.75;100.00
6204;BME280;3135;42.602;23.468;2024-01-15T03:58:42;148380.66;;;-3.90;100.00
6204;BME280;3135;42.602;23.468;2024-01-15T04:01:11;148360.16;;;-3.98;100.00
6204;BME280;3135;42.602;23.468;2024-01-15T04:03:38;148370.41;;;-3.94;100.00
6204;BME280;3135;42.602;23.468;2024-01-15T04:06:04;148408.81;;;-3.78;100.00
6204;BME280;3135;42.602;23.468;2024-01-15T04:08:30;148392.19;;;-3.85;100.00
6204;BME280;3135;42.602;23.468;2024-01-15T04:10:56;148433.16;;;-3.69;100.00
6204;BME280;3135;42.602;23.468;2024-01-15T04:13:21;148413.97;;;-3.76;100.00
6204;BME280;3135;42.602;23.468;2024-01-15T04:15:47;148401.13;;;-3.81;100.00
6204;BME280;3135;42.602;23.468;2024-01-15T04:18:12;148413.97;;;-3.76;100.00
6204;BME280;3135;42.602;23.468;2024-01-15T04:20:38;148405.00;;;-3.80;100.00
6204;BME280;3135;42.602;23.468;2024-01-15T04:23:04;148425.44;;;-3.72;100.00
6204;BME280;3135;42.602;23.468;2024-01-15T04:25:29;148456.19;;;-3.60;100.00
6204;BME280;3135;42.602;23.468;2024-01-15T04:27:55;148447.22;;;-3.63;100.00
6204;BME280;3135;42.602;23.468;2024-01-15T04:30:20;148461.34;;;-3.57;100.00
6204;BME280;3135;42.602;23.468;2024-01-15T04:32:46;148456.19;;;-3.60;100.00
6204;BME280;3135;42.602;23.468;2024-01-15T04:35:11;148402.44;;;-3.81;100.00
6204;BME280;3135;42.602;23.468;2024-01-15T04:37:38;148428.03;;;-3.71;100.00
6204;BME280;3135;42.602;23.468;2024-01-15T04:40:03;148466.44;;;-3.55;100.00
6204;BME280;3135;42.602;23.468;2024-01-15T04:42:29;148385.75;;;-3.88;100.00
6204;BME280;3135;42.602;23.468;2024-01-15T04:44:54;148451.09;;;-3.62;100.00
6204;BME280;3135;42.602;23.468;2024-01-15T04:47:20;148434.41;;;-3.68;100.00
6204;BME280;3135;42.602;23.468;2024-01-15T04:49:45;148428.03;;;-3.71;100.00
6204;BME280;3135;42.602;23.468;2024-01-15T04:52:11;148430.59;;;-3.70;100.00
6204;BME280;3135;42.602;23.468;2024-01-15T04:54:36;148393.47;;;-3.84;100.00
6204;BME280;3135;42.602;23.468;2024-01-15T04:57:03;148420.34;;;-3.74;100.00
6204;BME280;3135;42.602;23.468;2024-01-15T04:59:29;148419.06;;;-3.74;100.00
6204;BME280;3135;42.602;23.468;2024-01-15T05:01:55;148366.53;;;-3.95;100.00
6204;BME280;3135;42.602;23.468;2024-01-15T05:04:20;148411.38;;;-3.77;100.00
6204;BME280;3135;42.602;23.468;2024-01-15T05:06:46;148374.25;;;-3.92;100.00
6204;BME280;3135;42.602;23.468;2024-01-15T05:09:12;148369.13;;;-3.94;100.00
6204;BME280;3135;42.602;23.468;2024-01-15T05:11:40;148340.94;;;-4.05;100.00
6204;BME280;3135;42.602;23.468;2024-01-15T05:14:06;148367.84;;;-3.95;100.00
6204;BME280;3135;42.602;23.468;2024-01-15T05:16:31;148407.53;;;-3.79;100.00
6204;BME280;3135;42.602;23.468;2024-01-15T05:18:57;148458.75;;;-3.58;100.00
6204;BME280;3135;42.602;23.468;2024-01-15T05:21:22;148481.81;;;-3.49;100.00
6204;BME280;3135;42.602;23.468;2024-01-15T05:23:48;148475.44;;;-3.52;100.00
6204;BME280;3135;42.602;23.468;2024-01-15T05:26:13;148461.34;;;-3.57;100.00
6204;BME280;3135;42.602;23.468;2024-01-15T05:28:41;148456.19;;;-3.60;100.00
6204;BME280;3135;42.602;23.468;2024-01-15T05:31:08;148462.63;;;-3.57;100.00
6204;BME280;3135;42.602;23.468;2024-01-15T05:33:33;148480.53;;;-3.50;100.00
6204;BME280;3135;42.602;23.468;2024-01-15T05:35:59;148383.22;;;-3.89;100.00
6204;BME280;3135;42.602;23.468;2024-01-15T05:38:24;148402.44;;;-3.81;100.00
6204;BME280;3135;42.602;23.468;2024-01-15T05:40:49;148434.41;;;-3.68;100.00
6204;BME280;3135;42.602;23.468;2024-01-15T05:43:15;148445.94;;;-3.64;100.00
6204;BME280;3135;42.602;23.468;2024-01-15T05:45:42;148436.97;;;-3.67;100.00
6204;BME280;3135;42.602;23.468;2024-01-15T05:48:08;148343.53;;;-4.04;100.00
6204;BME280;3135;42.602;23.468;2024-01-15T05:50:34;148372.97;;;-3.93;100.00
6204;BME280;3135;42.602;23.468;2024-01-15T05:52:59;148362.72;;;-3.97;100.00
6204;BME280;3135;42.602;23.468;2024-01-15T05:55:24;148364.00;;;-3.96;100.00
6204;BME280;3135;42.602;23.468;2024-01-15T05:57:50;148360.16;;;-3.98;100.00
6204;BME280;3135;42.602;23.468;2024-01-15T06:00:16;148384.50;;;-3.88;100.00
6204;BME280;3135;42.602;23.468;2024-01-15T06:02:41;148396.00;;;-3.83;100.00
6204;BME280;3135;42.602;23.468;2024-01-15T06:05:07;148369.13;;;-3.94;100.00
6204;BME280;3135;42.602;23.468;2024-01-15T06:07:34;148398.56;;;-3.82;100.00
6204;BME280;3135;42.602;23.468;2024-01-15T06:10:00;148406.25;;;-3.79;100.00
6204;BME280;3135;42.602;23.468;2024-01-15T06:12:25;148328.16;;;-4.11;100.00
6204;BME280;3135;42.602;23.468;2024-01-15T06:14:53;148384.50;;;-3.88;100.00
6204;BME280;3135;42.602;23.468;2024-01-15T06:17:18;148389.59;;;-3.86;100.00
6204;BME280;3135;42.602;23.468;2024-01-15T06:19:44;148379.38;;;-3.90;100.00
6204;BME280;3135;42.602;23.468;2024-01-15T06:22:09;148378.06;;;-3.91;100.00
6204;BME280;3135;42.602;23.468;2024-01-15T06:24:34;148366.53;;;-3.95;100.00
6204;BME280;3135;42.602;23.468;2024-01-15T06:27:00;148393.47;;;-3.84;100.00
6204;BME280;3135;42.602;23.468;2024-01-15T06:29:26;148398.56;;;-3.82;100.00
6204;BME280;3135;42.602;23.468;2024-01-15T06:31:52;148343.53;;;-4.04;100.00
6204;BME280;3135;42.602;23.468;2024-01-15T06:34:18;148401.13;;;-3.81;100.00
6204;BME280;3135;42.602;23.468;2024-01-15T06:36:43;148402.44;;;-3.81;100.00
6204;BME280;3135;42.602;23.468;2024-01-15T06:39:09;148390.91;;;-3.86;100.00
6204;BME280;3135;42.602;23.468;2024-01-15T06:41:35;148397.28;;;-3.83;100.00
6204;BME280;3135;42.602;23.468;2024-01-15T06:44:06;148403.72;;;-3.80;100.00
6204;BME280;3135;42.602;23.468;2024-01-15T06:46:32;148445.94;;;-3.64;100.00
6204;BME280;3135;42.602;23.468;2024-01-15T06:48:57;148422.91;;;-3.73;100.00
6204;BME280;3135;42.602;23.468;2024-01-15T06:51:23;148461.34;;;-3.57;100.00
6204;BME280;3135;42.602;23.468;2024-01-15T06:53:48;148453.66;;;-3.61;100.00
6204;BME280;3135;42.602;23.468;2024-01-15T06:56:14;148456.19;;;-3.60;100.00
6204;BME280;3135;42.602;23.468;2024-01-15T06:58:39;148458.75;;;-3.58;100.00
6204;BME280;3135;42.602;23.468;2024-01-15T07:01:05;148518.94;;;-3.35;100.00
6204;BME280;3135;42.602;23.468;2024-01-15T07:03:31;148475.44;;;-3.52;100.00
6204;BME280;3135;42.602;23.468;2024-01-15T07:05:56;148512.56;;;-3.37;100.00
6204;BME280;3135;42.602;23.468;2024-01-15T07:08:22;148570.22;;;-3.14;100.00
6204;BME280;3135;42.602;23.468;2024-01-15T07:10:47;148577.88;;;-3.11;100.00
6204;BME280;3135;42.602;23.468;2024-01-15T07:13:12;148599.69;;;-3.02;100.00
6204;BME280;3135;42.602;23.468;2024-01-15T07:15:38;148629.19;;;-2.91;100.00
6204;BME280;3135;42.602;23.468;2024-01-15T07:18:04;148625.31;;;-2.92;100.00
6204;BME280;3135;42.602;23.468;2024-01-15T07:20:29;148643.25;;;-2.85;100.00
6204;BME280;3135;42.602;23.468;2024-01-15T07:22:54;148661.19;;;-2.78;100.00
6204;BME280;3135;42.602;23.468;2024-01-15T07:25:20;148666.34;;;-2.76;100.00
6204;BME280;3135;42.602;23.468;2024-01-15T07:27:47;148691.97;;;-2.66;100.00
6204;BME280;3135;42.602;23.468;2024-01-15T07:30:13;148707.34;;;-2.60;100.00
6204;BME280;3135;42.602;23.468;2024-01-15T07:32:38;148725.31;;;-2.52;100.00
6204;BME280;3135;42.602;23.468;2024-01-15T07:35:04;148677.88;;;-2.71;100.00
6204;BME280;3135;42.602;23.468;2024-01-15T07:37:31;148693.25;;;-2.65;100.00
6204;BME280;3135;42.602;23.468;2024-01-15T07:39:56;148674.03;;;-2.73;100.00
6204;BME280;3135;42.602;23.468;2024-01-15T07:42:21;148663.78;;;-2.77;100.00
6204;BME280;3135;42.602;23.468;2024-01-15T07:44:47;148650.97;;;-2.82;100.00
6204;BME280;3135;42.602;23.468;2024-01-15T07:47:12;148691.97;;;-2.66;100.00
6204;BME280;3135;42.602;23.468;2024-01-15T07:49:38;148706.06;;;-2.60;100.00
6204;BME280;3135;42.602;23.468;2024-01-15T07:52:04;148679.16;;;-2.71;100.00
6204;BME280;3135;42.602;23.468;2024-01-15T07:54:31;148745.84;;;-2.44;100.00
6204;BME280;3135;42.602;23.468;2024-01-15T07:56:58;148747.09;;;-2.44;100.00
6204;BME280;3135;42.602;23.468;2024-01-15T07:59:24;148802.22;;;-2.22;100.00
6204;BME280;3135;42.602;23.468;2024-01-15T08:01:50;148779.13;;;-2.31;100.00
6204;BME280;3135;42.602;23.468;2024-01-15T08:04:15;148812.47;;;-2.18;100.00
6204;BME280;3135;42.602;23.468;2024-01-15T08:06:41;148797.09;;;-2.24;100.00
6204;BME280;3135;42.602;23.468;2024-01-15T08:09:07;148781.72;;;-2.30;100.00
6204;BME280;3135;42.602;23.468;2024-01-15T08:11:34;148813.75;;;-2.17;100.00
6204;BME280;3135;42.602;23.468;2024-01-15T08:13:59;148820.19;;;-2.15;100.00
6204;BME280;3135;42.602;23.468;2024-01-15T08:16:25;148843.28;;;-2.06;100.00
6204;BME280;3135;42.602;23.468;2024-01-15T08:18:50;148839.41;;;-2.07;100.00
6204;BME280;3135;42.602;23.468;2024-01-15T08:21:16;148847.09;;;-2.04;100.00
6204;BME280;3135;42.602;23.468;2024-01-15T08:23:41;148859.94;;;-1.99;100.00
6204;BME280;3135;42.602;23.468;2024-01-15T08:26:07;148875.38;;;-1.93;100.00
6204;BME280;3135;42.602;23.468;2024-01-15T08:28:34;148912.56;;;-1.78;100.00
6204;BME280;3135;42.602;23.468;2024-01-15T08:30:59;148920.22;;;-1.75;100.00
6204;BME280;3135;42.602;23.468;2024-01-15T08:33:25;148894.56;;;-1.85;100.00
6204;BME280;3135;42.602;23.468;2024-01-15T08:35:50;148943.31;;;-1.66;100.00
6204;BME280;3135;42.602;23.468;2024-01-15T08:38:15;148943.31;;;-1.66;100.00
6204;BME280;3135;42.602;23.468;2024-01-15T08:40:41;148930.50;;;-1.71;100.00
6204;BME280;3135;42.602;23.468;2024-01-15T08:43:06;148940.75;;;-1.67;100.00
6204;BME280;3135;42.602;23.468;2024-01-15T08:45:32;148924.09;;;-1.73;100.00
6204;BME280;3135;42.602;23.468;2024-01-15T08:47:58;148935.66;;;-1.69;100.00
6204;BME280;3135;42.602;23.468;2024-01-15T08:50:23;148945.88;;;-1.65;100.00
6204;BME280;3135;42.602;23.468;2024-01-15T08:52:49;148966.41;;;-1.57;100.00
6204;BME280;3135;42.602;23.468;2024-01-15T08:55:14;148972.84;;;-1.54;100.00
6204;BME280;3135;42.602;23.468;2024-01-15T08:57:40;148894.56;;;-1.85;100.00
6204;BME280;3135;42.602;23.468;2024-01-15T09:00:06;148866.38;;;-1.96;100.00
6204;BME280;3135;42.602;23.468;2024-01-15T09:02:34;148870.19;;;-1.95;100.00
6204;BME280;3135;42.602;23.468;2024-01-15T09:05:00;148829.19;;;-2.11;100.00
6204;BME280;3135;42.602;23.468;2024-01-15T09:07:25;148894.56;;;-1.85;100.00
6204;BME280;3135;42.602;23.468;2024-01-15T09:09:52;148885.59;;;-1.89;100.00
6204;BME280;3135;42.602;23.468;2024-01-15T09:12:18;148925.38;;;-1.73;100.00
6204;BME280;3135;42.602;23.468;2024-01-15T09:14:46;148940.75;;;-1.67;100.00
6204;BME280;3135;42.602;23.468;2024-01-15T09:17:11;148971.56;;;-1.55;100.00
6204;BME280;3135;42.602;23.468;2024-01-15T09:19:37;149002.34;;;-1.42;100.00
6204;BME280;3135;42.602;23.468;2024-01-15T09:22:04;148988.25;;;-1.48;100.00
6204;BME280;3135;42.602;23.468;2024-01-15T09:24:29;148994.66;;;-1.45;100.00
6204;BME280;3135;42.602;23.468;2024-01-15T09:26:55;149010.06;;;-1.39;100.00
6204;BME280;3135;42.602;23.468;2024-01-15T09:29:20;149020.34;;;-1.35;100.00
6204;BME280;3135;42.602;23.468;2024-01-15T09:31:45;149019.06;;;-1.36;100.00
6204;BME280;3135;42.602;23.468;2024-01-15T09:34:11;148999.78;;;-1.43;100.00
6204;BME280;3135;42.602;23.468;2024-01-15T09:36:40;149012.63;;;-1.38;100.00
6204;BME280;3135;42.602;23.468;2024-01-15T09:39:09;148979.25;;;-1.51;100.00
6204;BME280;3135;42.602;23.468;2024-01-15T09:41:36;149035.72;;;-1.29;100.00
6204;BME280;3135;42.602;23.468;2024-01-15T09:44:03;149024.16;;;-1.34;100.00
6204;BME280;3135;42.602;23.468;2024-01-15T09:46:28;149026.72;;;-1.33;100.00
6204;BME280;3135;42.602;23.468;2024-01-15T09:48:54;149046.00;;;-1.25;100.00
6204;BME280;3135;42.602;23.468;2024-01-15T09:51:20;149083.22;;;-1.10;100.00
6204;BME280;3135;42.602;23.468;2024-01-15T09:53:47;149087.03;;;-1.09;100.00
6204;BME280;3135;42.602;23.468;2024-01-15T09:56:13;149053.72;;;-1.22;100.00
6204;BME280;3135;42.602;23.468;2024-01-15T09:58:39;149083.22;;;-1.10;100.00
6204;BME280;3135;42.602;23.468;2024-01-15T10:01:08;149098.59;;;-1.04;100.00
6204;BME280;3135;42.602;23.468;2024-01-15T10:03:33;149084.50;;;-1.10;100.00
6204;BME280;3135;42.602;23.468;2024-01-15T10:05:59;149079.38;;;-1.12;100.00
6204;BME280;3135;42.602;23.468;2024-01-15T10:08:25;149092.22;;;-1.07;100.00
6204;BME280;3135;42.602;23.468;2024-01-15T10:10:51;149089.66;;;-1.08;100.00
6204;BME280;3135;42.602;23.468;2024-01-15T10:13:17;149078.09;;;-1.12;100.00
6204;BME280;3135;42.602;23.468;2024-01-15T10:15:45;149048.56;;;-1.24;100.00
6204;BME280;3135;42.602;23.468;2024-01-15T10:18:12;149013.91;;;-1.38;100.00
6204;BME280;3135;42.602;23.468;2024-01-15T10:20:38;149028.00;;;-1.32;100.00
6204;BME280;3135;42.602;23.468;2024-01-15T10:23:04;148977.97;;;-1.52;100.00
6204;BME280;3135;42.602;23.468;2024-01-15T10:25:30;148971.56;;;-1.55;100.00
6204;BME280;3135;42.602;23.468;2024-01-15T10:28:03;148974.13;;;-1.53;100.00
6204;BME280;3135;42.602;23.468;2024-01-15T10:30:30;148992.06;;;-1.46;100.00
6204;BME280;3135;42.602;23.468;2024-01-15T10:32:59;149028.00;;;-1.32;100.00
6204;BME280;3135;42.602;23.468;2024-01-15T10:35:27;148967.69;;;-1.56;100.00
6204;BME280;3135;42.602;23.468;2024-01-15T10:37:53;148943.31;;;-1.66;100.00
6204;BME280;3135;42.602;23.468;2024-01-15T10:40:19;148961.31;;;-1.59;100.00
6204;BME280;3135;42.602;23.468;2024-01-15T10:42:44;149010.06;;;-1.39;100.00
6204;BME280;3135;42.602;23.468;2024-01-15T10:45:10;149028.00;;;-1.32;100.00
6204;BME280;3135;42.602;23.468;2024-01-15T10:47:35;149035.72;;;-1.29;100.00
6204;BME280;3135;42.602;23.468;2024-01-15T10:50:02;149071.66;;;-1.15;100.00
6204;BME280;3135;42.602;23.468;2024-01-15T10:52:28;149098.59;;;-1.04;100.00
6204;BME280;3135;42.602;23.468;2024-01-15T10:54:54;149115.31;;;-0.97;100.00
6204;BME280;3135;42.602;23.468;2024-01-15T10:57:21;149128.16;;;-0.92;100.00
6204;BME280;3135;42.602;23.468;2024-01-15T10:59:46;149128.16;;;-0.92;100.00
6204;BME280;3135;42.602;23.468;2024-01-15T11:02:13;149137.16;;;-0.89;100.00
6204;BME280;3135;42.602;23.468;2024-01-15T11:04:39;149132.00;;;-0.91;100.00
6204;BME280;3135;42.602;23.468;2024-01-15T11:07:05;149142.28;;;-0.87;100.00
6204;BME280;3135;42.602;23.468;2024-01-15T11:09:31;149170.50;;;-0.75;100.00
6204;BME280;3135;42.602;23.468;2024-01-15T11:12:10;149185.94;;;-0.69;100.00
6204;BME280;3135;42.602;23.468;2024-01-15T11:14:46;149260.41;;;-0.40;100.00
6204;BME280;3135;42.602;23.468;2024-01-15T11:17:12;149261.69;;;-0.39;100.00
6204;BME280;3135;42.602;23.468;2024-01-15T11:22:55;149334.91;;;-0.10;100.00
6204;BME280;3135;42.602;23.468;2024-01-15T11:25:05;149356.75;;;-0.02;100.00
6204;BME280;3135;42.602;23.468;2024-01-15T11:27:48;149352.91;;;-0.03;100.00
6204;BME280;3135;42.602;23.468;2024-01-15T11:30:18;149347.75;;;-0.05;100.00
6204;BME280;3135;42.602;23.468;2024-01-15T11:32:45;149332.34;;;-0.11;100.00
6204;BME280;3135;42.602;23.468;2024-01-15T11:35:12;149378.63;;;0.07;100.00
6204;BME280;3135;42.602;23.468;2024-01-15T11:40:23;149435.16;;;0.30;100.00
6204;BME280;3135;42.602;23.468;2024-01-15T11:43:04;149486.56;;;0.50;100.00
6204;BME280;3135;42.602;23.468;2024-01-15T11:45:31;149517.44;;;0.62;100.00
6204;BME280;3135;42.602;23.468;2024-01-15T11:48:12;149572.69;;;0.84;100.00
6204;BME280;3135;42.602;23.468;2024-01-15T11:50:42;149590.72;;;0.91;100.00
6204;BME280;3135;42.602;23.468;2024-01-15T11:53:34;149584.25;;;0.89;100.00
6204;BME280;3135;42.602;23.468;2024-01-15T11:56:02;149624.16;;;1.05;100.00
6204;BME280;3135;42.602;23.468;2024-01-15T11:58:29;149610.03;;;0.99;100.00
6204;BME280;3135;42.602;23.468;2024-01-15T12:00:54;149637.00;;;1.10;100.00
6204;BME280;3135;42.602;23.468;2024-01-15T12:03:21;149608.69;;;0.98;100.00
6204;BME280;3135;42.602;23.468;2024-01-15T12:05:47;149640.88;;;1.11;100.00
6204;BME280;3135;42.602;23.468;2024-01-15T12:08:13;149629.28;;;1.07;100.00
6204;BME280;3135;42.602;23.468;2024-01-15T12:10:39;149620.28;;;1.03;100.00
6204;BME280;3135;42.602;23.468;2024-01-15T12:13:15;149652.44;;;1.16;100.00
6204;BME280;3135;42.602;23.468;2024-01-15T12:15:42;149607.41;;;0.98;100.00
6204;BME280;3135;42.602;23.468;2024-01-15T12:18:10;149606.13;;;0.97;100.00
6204;BME280;3135;42.602;23.468;2024-01-15T12:20:35;149642.16;;;1.12;100.00
6204;BME280;3135;42.602;23.468;2024-01-15T12:23:02;149611.31;;;0.99;100.00
6204;BME280;3135;42.602;23.468;2024-01-15T12:25:30;149619.00;;;1.02;100.00
6204;BME280;3135;42.602;23.468;2024-01-15T12:27:56;149637.00;;;1.10;100.00
6204;BME280;3135;42.602;23.468;2024-01-15T12:30:22;149639.59;;;1.11;100.00
6204;BME280;3135;42.602;23.468;2024-01-15T12:32:47;149648.59;;;1.14;100.00
6204;BME280;3135;42.602;23.468;2024-01-15T12:35:14;149621.59;;;1.04;100.00
6204;BME280;3135;42.602;23.468;2024-01-15T12:37:40;149597.13;;;0.94;100.00
6204;BME280;3135;42.602;23.468;2024-01-15T12:40:08;149567.56;;;0.82;100.00
6204;BME280;3135;42.602;23.468;2024-01-15T12:42:41;149585.53;;;0.89;100.00
6204;BME280;3135;42.602;23.468;2024-01-15T12:45:07;149638.28;;;1.10;100.00
6204;BME280;3135;42.602;23.468;2024-01-15T12:47:33;149703.88;;;1.36;100.00
6204;BME280;3135;42.602;23.468;2024-01-15T12:49:59;149715.44;;;1.41;100.00